Time;durP1;ratioP1;P1;durP2;ratioP2;P2;SDS_P1;SDS_P2;PMS_P1;PMS_P2;Temp;Humidity;BMP_temperature;BMP_pressure;BME280_temperature;BME280_humidity;BME280_pressure;Samples;Min_cycle;Max_cycle;Signal;HPM_P1;HPM_P2
2022/08/16 00:00:33;;;;;;;2.20;2.00;;;;;;;21.19;64.11;99369.59;10370273;28;20044;-72
2022/08/16 00:05:40;;;;;;;3.58;2.30;;;;;;;21.08;64.63;99368.41;10376033;28;20056;-71
2022/08/16 00:10:49;;;;;;;2.78;2.33;;;;;;;21.11;64.54;99361.75;10367127;28;20053;-71
2022/08/16 00:15:51;;;;;;;4.18;3.00;;;;;;;20.99;65.01;99367.78;10395924;28;20132;-72
2022/08/16 00:20:54;;;;;;;4.18;2.63;;;;;;;20.94;65.59;99372.19;10395503;28;20049;-71
2022/08/16 00:25:56;;;;;;;3.90;2.40;;;;;;;20.84;66.02;99378.03;10394593;28;20050;-71
2022/08/16 00:31:18;;;;;;;3.17;2.88;;;;;;;20.82;66.16;99364.75;10395316;28;20811;-71
2022/08/16 00:36:24;;;;;;;3.10;2.58;;;;;;;20.89;65.49;99374.69;10390450;28;20053;-71
2022/08/16 00:41:29;;;;;;;3.38;2.80;;;;;;;20.78;66.25;99385.13;10391954;28;20038;-71
2022/08/16 00:47:07;;;;;;;3.13;2.88;;;;;;;20.73;66.60;99386.78;10392209;28;20042;-72
2022/08/16 00:52:08;;;;;;;3.25;2.50;;;;;;;20.74;66.88;99388.47;10394082;28;20040;-72
2022/08/16 00:57:30;;;;;;;2.88;2.67;;;;;;;20.75;66.33;99395.53;10385768;28;20052;-71
2022/08/16 01:02:51;;;;;;;3.70;2.88;;;;;;;20.67;66.80;99383.06;10397112;28;20049;-70
2022/08/16 01:07:54;;;;;;;3.42;3.05;;;;;;;20.66;67.04;99384.94;10377020;28;20053;-70
2022/08/16 01:12:55;;;;;;;6.05;3.00;;;;;;;20.72;67.25;99388.69;10395200;28;20051;-70
2022/08/16 01:18:04;;;;;;;2.72;2.53;;;;;;;20.80;66.68;99380.31;10388841;28;20858;-71
2022/08/16 01:23:20;;;;;;;5.13;2.85;;;;;;;20.78;67.19;99384.31;10388517;28;20838;-71
2022/08/16 01:28:22;;;;;;;5.35;3.35;;;;;;;20.76;67.08;99376.41;10391233;28;20042;-70
2022/08/16 01:33:31;;;;;;;3.30;3.00;;;;;;;20.78;67.08;99378.91;10391298;28;20048;-71
2022/08/16 01:38:43;;;;;;;5.07;3.65;;;;;;;20.65;67.21;99379.72;10392606;28;20075;-72
2022/08/16 01:43:53;;;;;;;3.58;2.95;;;;;;;20.64;67.44;99378.03;10395296;28;20052;-72
2022/08/16 01:49:00;;;;;;;3.60;3.10;;;;;;;20.65;68.05;99379.72;10397673;28;20135;-71
2022/08/16 01:54:02;;;;;;;3.30;3.00;;;;;;;20.58;68.66;99373.47;10398718;28;20053;-71
2022/08/16 01:59:06;;;;;;;4.97;3.33;;;;;;;20.55;68.49;99387.41;10395804;28;20056;-72
2022/08/16 02:04:17;;;;;;;5.03;3.67;;;;;;;20.38;69.83;99395.94;10373843;28;20052;-71
2022/08/16 02:09:40;;;;;;;3.97;3.58;;;;;;;20.32;70.19;99396.78;10389726;28;20176;-71
2022/08/16 02:14:42;;;;;;;5.28;4.20;;;;;;;20.28;70.16;99390.13;10382918;28;20057;-71
2022/08/16 02:19:45;;;;;;;6.00;4.18;;;;;;;20.23;71.06;99395.34;10375548;28;20144;-71
2022/08/16 02:25:09;;;;;;;4.05;3.45;;;;;;;20.24;71.04;99384.31;10394589;28;20811;-72
2022/08/16 02:30:16;;;;;;;4.45;4.00;;;;;;;20.28;71.01;99387.44;10390645;28;20161;-71
2022/08/16 02:35:39;;;;;;;5.63;4.13;;;;;;;20.14;71.49;99387.41;10390431;28;20132;-70
2022/08/16 02:40:56;;;;;;;4.80;4.15;;;;;;;20.12;71.75;99392.22;10392130;28;20128;-70
2022/08/16 02:46:00;;;;;;;;;;;;;;;20.21;71.68;99397.44;10393875;28;20045;-71
2022/08/16 02:51:04;;;;;;;4.68;4.20;;;;;;;20.24;71.15;99383.50;10391524;28;19933;-70
2022/08/16 02:56:13;;;;;;;4.55;3.63;;;;;;;20.26;70.68;99381.41;10371720;28;20187;-71
2022/08/16 03:01:21;;;;;;;4.22;3.70;;;;;;;20.29;70.98;99381.00;10390474;28;20786;-70
2022/08/16 03:06:37;;;;;;;6.68;4.00;;;;;;;20.17;71.32;99377.25;10384910;28;20212;-71
2022/08/16 03:11:43;;;;;;;4.30;3.90;;;;;;;20.05;71.83;99377.84;10389082;28;20045;-70
2022/08/16 03:16:45;;;;;;;4.65;3.85;;;;;;;20.10;71.66;99394.31;10386709;28;20076;-70
2022/08/16 03:22:00;;;;;;;5.38;4.20;;;;;;;19.99;71.84;99396.78;10390554;28;20048;-70
2022/08/16 03:27:02;;;;;;;4.22;3.88;;;;;;;19.93;72.58;99393.03;10379083;28;20049;-71
2022/08/16 03:32:06;;;;;;;4.55;4.15;;;;;;;19.87;72.66;99396.53;10391797;28;20125;-71
2022/08/16 03:37:08;;;;;;;4.88;4.10;;;;;;;19.93;72.59;99398.44;10399554;28;20116;-72
2022/08/16 03:42:09;;;;;;;4.35;3.95;;;;;;;19.91;72.58;99395.09;10431705;28;20055;-70
2022/08/16 03:47:10;;;;;;;4.82;4.43;;;;;;;19.94;72.07;99394.69;10387493;28;20123;-71
2022/08/16 03:52:12;;;;;;;4.55;3.97;;;;;;;20.03;72.10;99404.25;10390285;28;20091;-69
2022/08/16 03:57:16;;;;;;;5.30;4.43;;;;;;;19.93;72.41;99395.72;10391506;28;20045;-70
2022/08/16 04:02:19;;;;;;;5.80;4.32;;;;;;;19.85;73.07;99399.44;10388481;28;20160;-70
2022/08/16 04:07:23;;;;;;;5.93;5.43;;;;;;;19.89;73.07;99392.63;10393578;28;20065;-70
2022/08/16 04:12:25;;;;;;;5.28;4.85;;;;;;;19.71;73.61;99390.47;10375115;28;20049;-71
2022/08/16 04:17:46;;;;;;;6.60;5.00;;;;;;;19.77;74.26;99395.09;10388627;28;20048;-71
2022/08/16 04:22:48;;;;;;;5.65;4.55;;;;;;;19.81;73.73;99400.06;10384542;28;20135;-71
2022/08/16 04:27:50;;;;;;;5.72;5.22;;;;;;;19.85;73.48;99404.03;10388332;28;20049;-71
2022/08/16 04:32:56;;;;;;;6.20;5.60;;;;;;;19.70;74.33;99398.78;10384280;28;20126;-71
2022/08/16 04:38:00;;;;;;;;;;;;;;;19.63;74.56;99406.00;10376680;28;20203;-71
2022/08/16 04:43:20;;;;;;;6.40;5.82;;;;;;;19.55;74.60;99405.16;10385680;28;20465;-71
2022/08/16 04:48:23;;;;;;;7.23;5.30;;;;;;;19.57;75.33;99410.34;10386496;28;20155;-71
2022/08/16 04:53:33;;;;;;;6.53;5.35;;;;;;;19.68;76.49;99406.22;10388470;28;20053;-71
2022/08/16 04:58:34;;;;;;;6.10;5.50;;;;;;;19.73;75.09;99415.38;10375088;28;20052;-71
2022/08/16 05:03:47;;;;;;;5.65;5.13;;;;;;;19.74;75.47;99410.81;10392446;28;20275;-71
2022/08/16 05:09:01;;;;;;;7.05;5.82;;;;;;;19.99;74.02;99418.38;10393661;28;20588;-71
2022/08/16 05:14:03;;;;;;;7.03;5.80;;;;;;;19.89;74.35;99425.03;10395845;28;20656;-71
2022/08/16 05:19:07;;;;;;;7.75;5.80;;;;;;;19.76;74.21;99423.06;10394939;28;20515;-71
2022/08/16 05:24:12;;;;;;;7.63;6.85;;;;;;;19.77;75.19;99427.47;10377555;28;20122;-68
2022/08/16 05:29:13;;;;;;;6.50;5.95;;;;;;;19.81;75.21;99430.59;10394824;28;20049;-71
2022/08/16 05:34:20;;;;;;;8.73;7.75;;;;;;;19.81;75.25;99433.28;10383544;28;20475;-70
2022/08/16 05:39:24;;;;;;;11.85;7.80;;;;;;;19.87;74.69;99435.19;10392113;28;20057;-71
2022/08/16 05:44:26;;;;;;;8.27;7.13;;;;;;;19.82;75.25;99434.97;10388965;28;20286;-71
2022/08/16 05:49:29;;;;;;;7.90;6.75;;;;;;;19.92;75.00;99450.75;10391587;28;20137;-72
2022/08/16 05:54:42;;;;;;;7.97;7.00;;;;;;;20.00;74.45;99458.69;10394103;28;20187;-70
2022/08/16 05:59:48;;;;;;;7.85;7.00;;;;;;;20.03;74.50;99458.28;10385827;28;20127;-72
2022/08/16 06:05:00;;;;;;;10.10;7.50;;;;;;;20.22;73.76;99456.66;10391780;28;20230;-72
2022/08/16 06:10:03;;;;;;;10.73;8.30;;;;;;;20.29;73.77;99464.75;10392907;28;20517;-70
2022/08/16 06:15:12;;;;;;;9.95;7.63;;;;;;;20.45;73.06;99468.94;10382358;28;20047;-73
2022/08/16 06:20:21;;;;;;;7.68;6.88;;;;;;;20.42;72.48;99472.88;10370119;28;20056;-72
2022/08/16 06:25:27;;;;;;;7.60;6.90;;;;;;;20.64;72.20;99473.53;10393578;28;20710;-72
2022/08/16 06:30:39;;;;;;;7.60;6.90;;;;;;;20.70;71.23;99474.56;10392506;28;20102;-73
2022/08/16 06:35:45;;;;;;;8.50;7.55;;;;;;;20.98;70.98;99476.22;10394234;28;20057;-75
2022/08/16 06:40:49;;;;;;;7.80;7.07;;;;;;;21.06;69.97;99475.97;10377221;28;20059;-75
2022/08/16 06:45:51;;;;;;;6.43;5.82;;;;;;;21.27;69.25;99484.91;10398387;28;20841;-75
2022/08/16 06:50:53;;;;;;;7.38;6.78;;;;;;;21.36;68.81;99483.63;10379838;28;20499;-74
2022/08/16 06:55:57;;;;;;;9.35;7.18;;;;;;;21.44;68.70;99475.28;10392112;28;20136;-75
2022/08/16 07:01:03;;;;;;;7.40;6.15;;;;;;;21.76;67.94;99471.84;10395918;28;20187;-73
2022/08/16 07:06:10;;;;;;;7.90;7.10;;;;;;;21.88;67.56;99475.53;10400553;28;20049;-73
2022/08/16 07:11:13;;;;;;;8.68;7.00;;;;;;;21.86;66.93;99475.75;10378264;28;20045;-72
2022/08/16 07:16:16;;;;;;;6.68;6.05;;;;;;;22.09;66.39;99487.91;10388405;28;20055;-75
2022/08/16 07:21:21;;;;;;;7.50;6.90;;;;;;;21.97;65.94;99486.94;10391346;28;20044;-75
2022/08/16 07:26:24;;;;;;;6.63;5.85;;;;;;;22.22;65.66;99489.72;10372141;28;20126;-75
2022/08/16 07:31:26;;;;;;;;;;;;;;;22.41;64.53;99490.66;10396455;28;20060;-76
2022/08/16 07:36:40;;;;;;;6.47;5.88;;;;;;;22.42;64.63;99484.19;10392086;28;19925;-75
2022/08/16 07:41:45;;;;;;;6.75;6.18;;;;;;;22.77;62.85;99478.25;10391671;28;20051;-74
2022/08/16 07:46:47;;;;;;;5.50;5.00;;;;;;;22.97;63.26;99488.09;10390876;28;20414;-73
2022/08/16 07:51:56;;;;;;;5.65;4.97;;;;;;;23.02;61.90;99480.94;10388145;28;20044;-76
2022/08/16 07:56:58;;;;;;;6.20;5.70;;;;;;;23.03;61.64;99492.63;10385299;28;20056;-74
2022/08/16 08:01:59;;;;;;;5.25;4.75;;;;;;;23.30;61.38;99494.06;10382616;28;20072;-75
2022/08/16 08:07:01;;;;;;;5.38;4.97;;;;;;;23.55;59.97;99486.88;10390016;28;20053;-76
2022/08/16 08:12:09;;;;;;;4.38;3.70;;;;;;;23.76;59.89;99491.00;10373460;28;20110;-75
2022/08/16 08:17:30;;;;;;;4.95;4.47;;;;;;;24.10;58.33;99499.59;10388737;28;20541;-73
2022/08/16 08:22:45;;;;;;;4.35;3.95;;;;;;;24.38;57.19;99507.13;10383255;28;20049;-73
2022/08/16 08:27:49;;;;;;;7.22;4.63;;;;;;;24.65;56.02;99502.13;10360987;28;20045;-72
2022/08/16 08:32:58;;;;;;;4.75;3.72;;;;;;;24.81;56.21;99500.59;10391033;28;20146;-74
2022/08/16 08:38:02;;;;;;;4.90;4.22;;;;;;;24.83;54.51;99506.66;10390627;28;20156;-76
2022/08/16 08:43:11;;;;;;;5.22;3.03;;;;;;;24.62;54.99;99494.44;10375998;28;20056;-75
2022/08/16 08:48:19;;;;;;;4.20;3.80;;;;;;;24.94;54.85;99496.00;10380588;28;20813;-73
2022/08/16 08:53:37;;;;;;;5.25;3.63;;;;;;;25.33;52.55;99499.91;10384871;28;20056;-75
2022/08/16 08:58:39;;;;;;;6.20;3.33;;;;;;;25.56;51.59;99506.38;10395074;28;20041;-73
2022/08/16 09:03:55;;;;;;;3.75;3.40;;;;;;;25.52;52.16;99503.31;10380778;28;20055;-73
2022/08/16 09:08:58;;;;;;;4.85;3.00;;;;;;;25.60;52.03;99507.56;10377767;28;20160;-74
2022/08/16 09:14:00;;;;;;;3.65;3.35;;;;;;;26.00;49.93;99520.38;10401153;28;20049;-72
2022/08/16 09:19:01;;;;;;;3.13;2.80;;;;;;;26.40;49.80;99518.66;10393061;28;20138;-74
2022/08/16 09:24:04;;;;;;;3.78;3.45;;;;;;;26.87;47.89;99517.53;10393656;28;20060;-74
2022/08/16 09:29:10;;;;;;;4.30;3.72;;;;;;;27.14;47.14;99523.13;10381233;28;20060;-76
2022/08/16 09:34:17;;;;;;;3.47;3.03;;;;;;;27.38;47.18;99520.22;10391951;28;20135;-73
2022/08/16 09:39:20;;;;;;;4.07;3.45;;;;;;;27.95;44.54;99514.38;10378792;28;20506;-76
2022/08/16 09:44:23;;;;;;;3.08;2.83;;;;;;;28.14;44.35;99509.41;10374682;28;20680;-76
2022/08/16 09:49:44;;;;;;;4.72;3.13;;;;;;;28.39;43.74;99516.25;10390152;28;20060;-72
2022/08/16 09:54:52;;;;;;;3.30;2.95;;;;;;;28.81;42.71;99506.47;10388848;28;20048;-74
2022/08/16 09:59:54;;;;;;;4.40;2.70;;;;;;;29.00;43.44;99509.63;10372475;28;20492;-74
2022/08/16 10:04:57;;;;;;;3.88;3.17;;;;;;;29.57;40.84;99514.34;10387298;28;20540;-74
2022/08/16 10:09:59;;;;;;;3.45;3.17;;;;;;;30.13;39.02;99504.69;10392242;28;20404;-75
2022/08/16 10:15:00;;;;;;;3.93;3.10;;;;;;;29.49;40.87;99512.13;10398098;28;20041;-75
2022/08/16 10:20:03;;;;;;;4.65;3.17;;;;;;;28.70;41.86;99505.56;10393973;28;20151;-76
2022/08/16 10:25:06;;;;;;;3.60;3.22;;;;;;;29.49;39.16;99505.84;10394713;28;20160;-75
2022/08/16 10:30:09;;;;;;;2.83;2.63;;;;;;;31.73;36.75;99502.66;10395518;28;20154;-76
2022/08/16 10:35:28;;;;;;;3.10;2.58;;;;;;;35.27;29.38;99499.66;10394081;28;20050;-76
2022/08/16 10:40:33;;;;;;;3.55;2.50;;;;;;;34.56;31.95;99508.09;10391110;28;20055;-77
2022/08/16 10:45:35;;;;;;;2.85;2.20;;;;;;;32.63;33.52;99508.97;10387681;28;20060;-75
2022/08/16 10:50:38;;;;;;;6.32;2.78;;;;;;;32.10;34.35;99504.09;10391453;28;21371;-75
2022/08/16 10:55:41;;;;;;;2.00;1.90;;;;;;;32.54;34.88;99497.75;10377287;28;20133;-75
2022/08/16 11:00:46;;;;;;;3.40;2.33;;;;;;;33.74;32.39;99498.22;10392170;28;22802;-76
2022/08/16 11:05:47;;;;;;;2.20;2.00;;;;;;;36.61;27.57;99492.00;10388122;28;20512;-77
2022/08/16 11:11:07;;;;;;;2.23;2.03;;;;;;;37.29;26.72;99489.16;10381962;28;20162;-75
2022/08/16 11:16:19;;;;;;;2.92;2.22;;;;;;;36.28;27.80;99486.72;10392962;28;20060;-74
2022/08/16 11:21:42;;;;;;;4.35;1.98;;;;;;;36.75;27.52;99491.97;10379329;28;20044;-76
2022/08/16 11:27:05;;;;;;;5.47;2.08;;;;;;;38.92;22.80;99497.41;10366088;28;20056;-78
2022/08/16 11:32:26;;;;;;;1.92;1.80;;;;;;;41.10;21.02;99506.16;10373283;28;21051;-75
2022/08/16 11:37:35;;;;;;;2.00;1.70;;;;;;;42.03;19.99;99497.16;10390147;28;20055;-76
2022/08/16 11:42:57;;;;;;;1.40;1.30;;;;;;;39.05;22.57;99488.03;10388868;28;20053;-74
2022/08/16 11:47:59;;;;;;;1.52;1.30;;;;;;;37.93;24.74;99493.38;10394701;28;20098;-76
2022/08/16 11:53:02;;;;;;;2.13;1.40;;;;;;;36.39;25.56;99494.78;10400780;28;20095;-75
2022/08/16 11:58:07;;;;;;;1.70;1.50;;;;;;;36.02;26.70;99496.75;10400002;28;20044;-74
2022/08/16 12:03:12;;;;;;;2.00;1.55;;;;;;;35.55;28.11;99489.41;10381206;28;20083;-79
2022/08/16 12:08:15;;;;;;;1.60;1.50;;;;;;;34.93;28.73;99494.47;10395455;28;20059;-76
2022/08/16 12:13:18;;;;;;;2.10;1.90;;;;;;;34.86;27.66;99490.19;10401813;28;20166;-76
2022/08/16 12:18:22;;;;;;;2.22;2.08;;;;;;;34.80;29.74;99477.56;10403291;28;20179;-74
2022/08/16 12:23:23;;;;;;;1.55;1.25;;;;;;;34.80;28.69;99469.28;10411312;28;20049;-74
2022/08/16 12:28:25;;;;;;;2.28;1.60;;;;;;;34.86;28.57;99475.50;10405915;28;20127;-74
2022/08/16 12:33:47;;;;;;;1.45;1.33;;;;;;;34.57;28.66;99470.22;10399346;28;20060;-76
2022/08/16 12:38:54;;;;;;;2.30;1.40;;;;;;;34.29;28.44;99472.88;10376142;28;20057;-75
2022/08/16 12:43:57;;;;;;;1.95;1.77;;;;;;;34.22;29.27;99477.94;10388683;28;20550;-73
2022/08/16 12:49:04;;;;;;;2.30;1.70;;;;;;;33.95;28.40;99476.69;10383571;28;20128;-75
2022/08/16 12:54:08;;;;;;;1.63;1.30;;;;;;;33.60;30.17;99471.34;10402259;28;20032;-76
2022/08/16 12:59:11;;;;;;;2.05;1.77;;;;;;;33.15;28.97;99469.91;10373180;28;20557;-75
2022/08/16 13:04:19;;;;;;;2.65;1.55;;;;;;;33.23;28.98;99464.59;10374701;28;20313;-75
2022/08/16 13:09:25;;;;;;;2.03;1.60;;;;;;;33.35;30.01;99455.94;10389117;28;20234;-75
2022/08/16 13:14:36;;;;;;;1.40;1.30;;;;;;;33.50;28.96;99449.41;10408142;28;20508;-75
2022/08/16 13:19:38;;;;;;;2.22;1.40;;;;;;;33.37;30.11;99456.44;10417240;28;20486;-79
2022/08/16 13:25:00;;;;;;;2.95;1.60;;;;;;;33.30;29.25;99444.97;10400869;28;20059;-77
2022/08/16 13:30:03;;;;;;;1.95;1.15;;;;;;;33.37;28.80;99450.09;10391353;28;20056;-78
2022/08/16 13:35:25;;;;;;;2.15;1.50;;;;;;;32.78;29.62;99433.66;10396546;28;20052;-76
2022/08/16 13:40:34;;;;;;;3.15;1.13;;;;;;;32.83;29.38;99435.53;10389408;28;20068;-73
2022/08/16 13:45:36;;;;;;;2.35;1.40;;;;;;;32.92;28.63;99428.25;10382598;28;20076;-74
2022/08/16 13:50:44;;;;;;;2.25;1.23;;;;;;;32.87;28.55;99442.91;10393804;28;20463;-74
2022/08/16 13:55:54;;;;;;;2.15;1.30;;;;;;;32.71;29.61;99427.66;10400940;28;20068;-74
2022/08/16 14:01:00;;;;;;;2.13;1.30;;;;;;;32.63;29.70;99429.09;10403437;28;20135;-71
2022/08/16 14:06:02;;;;;;;1.75;0.95;;;;;;;32.33;29.96;99427.44;10397591;28;20053;-69
2022/08/16 14:11:04;;;;;;;1.50;1.20;;;;;;;31.97;29.94;99430.44;10398062;28;20052;-72
2022/08/16 14:16:12;;;;;;;1.40;1.00;;;;;;;31.73;29.74;99426.44;10395703;28;20052;-72
2022/08/16 14:21:24;;;;;;;2.78;1.02;;;;;;;31.54;29.92;99418.00;10396058;28;20054;-71
2022/08/16 14:26:25;;;;;;;1.73;1.23;;;;;;;31.35;30.16;99415.06;10407572;28;20041;-72
2022/08/16 14:31:27;;;;;;;1.20;1.10;;;;;;;30.98;30.16;99413.53;10412052;28;20049;-74
2022/08/16 14:36:32;;;;;;;1.70;1.60;;;;;;;30.76;30.91;99413.03;10426412;28;20465;-73
2022/08/16 14:41:33;;;;;;;1.60;1.20;;;;;;;30.53;30.88;99411.69;10395705;28;20071;-73
2022/08/16 14:46:37;;;;;;;1.30;1.20;;;;;;;30.42;30.45;99403.47;10391769;28;20060;-70
2022/08/16 14:51:39;;;;;;;1.90;1.67;;;;;;;30.32;31.16;99403.44;10370707;28;20861;-72
2022/08/16 14:56:41;;;;;;;1.45;1.10;;;;;;;30.10;31.15;99399.06;10387275;28;20584;-72
2022/08/16 15:01:55;;;;;;;1.83;1.73;;;;;;;29.92;31.57;99389.44;10384236;28;20143;-74
2022/08/16 15:07:00;;;;;;;2.35;1.00;;;;;;;29.84;31.35;99386.41;10390251;28;20144;-73
2022/08/16 15:12:07;;;;;;;1.63;1.27;;;;;;;29.78;31.63;99388.28;10370711;28;20147;-73
2022/08/16 15:17:27;;;;;;;1.10;1.00;;;;;;;29.75;31.21;99383.34;10390528;28;20962;-72
2022/08/16 15:22:49;;;;;;;2.78;1.42;;;;;;;29.68;30.98;99389.09;10394576;28;20044;-72
2022/08/16 15:27:51;;;;;;;2.25;1.42;;;;;;;29.71;31.06;99395.94;10392660;28;20199;-73
2022/08/16 15:33:04;;;;;;;2.85;1.40;;;;;;;29.60;31.05;99397.84;10369540;28;20060;-74
2022/08/16 15:38:08;;;;;;;1.73;0.90;;;;;;;29.52;31.19;99407.44;10393493;28;20055;-74
2022/08/16 15:43:30;;;;;;;0.98;0.98;;;;;;;29.46;31.05;99400.28;10385980;28;20356;-72
2022/08/16 15:48:40;;;;;;;1.67;0.90;;;;;;;29.45;31.24;99393.16;10375884;28;20056;-74
2022/08/16 15:53:42;;;;;;;1.67;1.37;;;;;;;29.47;30.71;99404.69;10391625;28;20135;-72
2022/08/16 15:58:56;;;;;;;1.80;0.85;;;;;;;29.43;30.96;99393.41;10391524;28;20464;-75
2022/08/16 16:03:58;;;;;;;1.83;1.27;;;;;;;29.39;30.81;99402.44;10377301;28;20488;-74
2022/08/16 16:09:00;;;;;;;3.15;1.35;;;;;;;29.37;30.66;99404.66;10385750;28;20278;-74
2022/08/16 16:14:01;;;;;;;1.73;1.20;;;;;;;29.34;30.47;99399.69;10389918;28;20049;-75
2022/08/16 16:19:07;;;;;;;1.92;0.90;;;;;;;29.25;30.81;99405.69;10391279;28;20053;-73
2022/08/16 16:24:12;;;;;;;1.33;1.23;;;;;;;29.19;31.07;99406.72;10383429;28;20053;-73
2022/08/16 16:29:24;;;;;;;1.90;1.35;;;;;;;29.23;31.40;99404.28;10387048;28;20395;-73
2022/08/16 16:34:26;;;;;;;2.03;1.20;;;;;;;29.20;31.44;99400.16;10365845;28;20052;-73
2022/08/16 16:39:35;;;;;;;1.13;1.00;;;;;;;29.14;31.36;99390.28;10393290;28;20136;-74
2022/08/16 16:44:37;;;;;;;1.60;1.05;;;;;;;29.12;31.75;99392.44;10379836;28;20060;-74
2022/08/16 16:49:51;;;;;;;2.15;1.23;;;;;;;29.06;31.43;99390.78;10393768;28;20420;-74
2022/08/16 16:54:53;;;;;;;2.60;1.17;;;;;;;29.00;31.27;99391.84;10395640;28;20061;-75
2022/08/16 16:59:56;;;;;;;1.85;1.52;;;;;;;28.96;30.98;99404.41;10395423;28;20060;-73
2022/08/16 17:04:58;;;;;;;2.50;1.30;;;;;;;28.84;31.17;99391.78;10392602;28;20086;-72
2022/08/16 17:10:02;;;;;;;2.13;1.10;;;;;;;28.79;31.28;99390.91;10385231;28;20528;-73
2022/08/16 17:15:06;;;;;;;1.55;1.20;;;;;;;28.76;31.16;99388.72;10410160;28;20686;-74
2022/08/16 17:20:09;;;;;;;2.03;0.90;;;;;;;28.73;31.93;99390.03;10409481;28;20388;-75
2022/08/16 17:25:13;;;;;;;2.13;1.20;;;;;;;28.65;31.27;99398.78;10440986;28;20061;-75
2022/08/16 17:30:24;;;;;;;1.35;1.25;;;;;;;28.57;31.60;99392.66;10430601;28;20049;-74
2022/08/16 17:35:47;;;;;;;1.20;1.10;;;;;;;28.53;31.64;99397.00;10444253;28;20068;-72
2022/08/16 17:40:57;;;;;;;12.93;7.72;;;;;;;28.43;31.68;99396.13;10439717;28;20233;-75
2022/08/16 17:46:00;;;;;;;2.70;2.17;;;;;;;28.35;31.77;99391.97;10458955;28;20036;-76
2022/08/16 17:51:04;;;;;;;2.17;1.83;;;;;;;28.25;31.79;99394.63;10453630;28;20063;-76
2022/08/16 17:56:05;;;;;;;1.10;1.00;;;;;;;28.16;32.04;99397.81;10432048;28;20049;-76
2022/08/16 18:01:07;;;;;;;5.17;1.23;;;;;;;28.13;32.18;99406.53;10428613;28;20044;-74
2022/08/16 18:06:11;;;;;;;5.15;1.80;;;;;;;28.05;32.26;99404.28;10447449;28;20059;-74
2022/08/16 18:11:16;;;;;;;2.10;1.30;;;;;;;28.02;32.66;99396.63;10389397;28;20053;-74
2022/08/16 18:16:18;;;;;;;1.98;1.38;;;;;;;27.94;32.69;99410.72;10439864;28;20052;-76
2022/08/16 18:26:40;;;;;;;2.70;2.45;;;;;;;27.80;33.93;99410.31;10443488;28;20056;-75
2022/08/16 18:31:42;;;;;;;3.00;2.00;;;;;;;27.71;34.22;99406.38;10436272;28;20467;-73
2022/08/16 18:36:44;;;;;;;3.53;2.40;;;;;;;27.64;34.62;99412.06;10417237;28;20116;-74
2022/08/16 18:41:46;;;;;;;2.80;1.92;;;;;;;27.54;34.79;99414.69;10417677;28;21041;-73
2022/08/16 18:46:48;;;;;;;4.10;2.20;;;;;;;27.45;35.26;99415.13;10412421;28;20068;-73
2022/08/16 18:51:55;;;;;;;4.20;2.67;;;;;;;27.38;35.13;99409.03;10415076;28;20056;-72
2022/08/16 18:56:57;;;;;;;3.38;2.80;;;;;;;27.33;35.56;99426.19;10409803;28;20059;-73
2022/08/16 19:01:59;;;;;;;3.47;3.17;;;;;;;27.28;36.20;99415.16;10406396;28;20072;-73
2022/08/16 19:07:05;;;;;;;5.25;3.42;;;;;;;27.22;36.69;99423.53;10389060;28;20130;-72
2022/08/16 19:12:07;;;;;;;3.78;3.30;;;;;;;27.10;36.99;99424.50;10371590;28;20053;-74
2022/08/16 19:17:10;;;;;;;5.18;3.45;;;;;;;27.04;37.27;99433.72;10388915;28;20050;-71
2022/08/16 19:22:11;;;;;;;;;;;;;;;26.98;38.05;99437.44;10363758;28;20076;-72
2022/08/16 19:27:13;;;;;;;3.88;3.13;;;;;;;26.90;37.84;99451.50;10368705;28;20474;-73
2022/08/16 19:32:20;;;;;;;5.03;3.55;;;;;;;26.83;37.97;99450.84;10362275;28;20660;-72
2022/08/16 19:37:22;;;;;;;5.00;3.65;;;;;;;26.78;38.48;99455.19;10364790;28;20061;-71
2022/08/16 19:42:26;;;;;;;5.95;4.05;;;;;;;26.72;38.50;99464.38;10365030;28;20584;-72
2022/08/16 19:47:28;;;;;;;3.97;3.67;;;;;;;26.61;38.72;99463.34;10367515;28;20116;-74
2022/08/16 19:52:30;;;;;;;4.30;3.88;;;;;;;26.53;39.23;99463.75;10352240;28;20056;-75
2022/08/16 19:57:33;;;;;;;4.40;4.00;;;;;;;26.45;39.60;99470.47;10372252;28;20939;-72
2022/08/16 20:02:40;;;;;;;5.43;4.65;;;;;;;26.35;39.38;99470.28;10349287;28;20510;-72
2022/08/16 20:07:44;;;;;;;5.82;4.28;;;;;;;26.28;40.30;99472.34;10368617;28;20111;-72
2022/08/16 20:13:00;;;;;;;4.57;4.05;;;;;;;26.23;40.15;99488.63;10382746;28;21731;-74
2022/08/16 20:18:03;;;;;;;4.30;3.70;;;;;;;26.14;39.90;99482.75;10362313;28;20691;-72
2022/08/16 20:23:21;;;;;;;4.40;4.00;;;;;;;26.10;40.02;99482.38;10373529;28;20076;-74
2022/08/16 20:28:26;;;;;;;5.20;3.90;;;;;;;26.02;40.37;99480.06;10355598;28;20048;-72
2022/08/16 20:33:48;;;;;;;3.70;3.20;;;;;;;25.98;40.20;99489.75;10376866;28;20063;-74
2022/08/16 20:38:50;;;;;;;4.50;3.20;;;;;;;25.94;40.30;99488.59;10394576;28;20052;-73
2022/08/16 20:43:52;;;;;;;5.45;3.72;;;;;;;25.91;40.33;99499.97;10359848;28;20118;-75
2022/08/16 20:48:55;;;;;;;5.45;4.15;;;;;;;25.83;40.69;99494.94;10380991;28;20053;-73
2022/08/16 20:53:59;;;;;;;4.15;3.53;;;;;;;25.67;40.80;99504.69;10373616;28;20120;-72
2022/08/16 20:59:00;;;;;;;7.18;4.40;;;;;;;25.56;41.15;99503.66;10404043;28;20294;-72
2022/08/16 21:04:02;;;;;;;5.32;4.68;;;;;;;25.54;42.33;99505.78;10383104;28;20921;-72
2022/08/16 21:09:03;;;;;;;4.63;4.10;;;;;;;25.57;42.57;99516.22;10399352;28;20045;-73
2022/08/16 21:14:09;;;;;;;2.13;1.92;;;;;;;25.35;39.82;99511.38;10385237;28;20178;-74
2022/08/16 21:19:11;;;;;;;4.38;3.38;;;;;;;25.28;41.71;99520.72;10377826;28;20105;-75
2022/08/16 21:24:12;;;;;;;3.20;2.90;;;;;;;25.23;41.78;99515.97;10371571;28;20719;-72
2022/08/16 21:29:14;;;;;;;3.60;3.30;;;;;;;25.18;42.17;99518.59;10333091;28;20192;-74
2022/08/16 21:34:20;;;;;;;8.43;4.65;;;;;;;25.16;42.87;99528.88;10374558;28;20069;-72
2022/08/16 21:39:24;;;;;;;4.90;3.90;;;;;;;25.11;43.37;99517.88;10392813;28;20042;-72
2022/08/16 21:44:25;;;;;;;4.05;3.50;;;;;;;25.06;44.12;99527.59;10379667;28;20183;-72
2022/08/16 21:49:39;;;;;;;5.20;3.60;;;;;;;24.98;43.42;99529.84;10343618;28;20211;-74
2022/08/16 21:55:04;;;;;;;7.22;3.78;;;;;;;24.82;43.53;99504.16;10369014;28;20077;-74
2022/08/16 22:00:20;;;;;;;3.30;3.00;;;;;;;24.89;43.63;99515.75;10383060;28;20116;-74
2022/08/16 22:05:34;;;;;;;4.05;3.67;;;;;;;24.85;43.30;99528.19;10331368;28;20871;-73
2022/08/16 22:10:43;;;;;;;5.88;3.53;;;;;;;24.79;43.35;99531.84;10366616;28;20118;-75
2022/08/16 22:16:06;;;;;;;4.07;3.70;;;;;;;24.73;43.95;99532.78;10345052;28;20053;-74
2022/08/16 22:21:10;;;;;;;6.00;3.72;;;;;;;24.72;44.29;99536.56;10298042;28;20053;-74
2022/08/16 22:26:14;;;;;;;7.55;3.42;;;;;;;24.67;44.01;99529.09;10324698;28;20053;-75
2022/08/16 22:31:29;;;;;;;3.35;3.05;;;;;;;24.64;44.56;99530.38;10357334;28;20697;-75
2022/08/16 22:36:35;;;;;;;4.10;3.40;;;;;;;24.56;44.75;99525.28;10349521;28;20056;-74
2022/08/16 22:41:42;;;;;;;3.58;3.28;;;;;;;24.48;44.57;99525.59;10373282;28;20050;-72
2022/08/16 22:46:48;;;;;;;3.22;2.90;;;;;;;24.45;44.79;99536.94;10350352;28;20271;-75
2022/08/16 22:51:49;;;;;;;3.40;3.10;;;;;;;24.38;45.05;99536.19;10373014;28;20059;-72
2022/08/16 22:56:55;;;;;;;2.70;2.50;;;;;;;24.38;45.24;99541.63;10386839;28;20113;-74
2022/08/16 23:02:01;;;;;;;5.05;4.07;;;;;;;24.27;46.00;99540.53;10379693;28;22388;-72
2022/08/16 23:07:04;;;;;;;5.65;3.70;;;;;;;24.15;46.24;99535.06;10367993;28;20049;-73
2022/08/16 23:12:10;;;;;;;5.13;3.33;;;;;;;24.08;46.52;99537.88;10367180;28;20158;-73
2022/08/16 23:17:11;;;;;;;5.40;3.47;;;;;;;24.02;46.35;99532.50;10358640;28;20091;-73
2022/08/16 23:22:13;;;;;;;3.65;2.95;;;;;;;23.94;46.66;99525.50;10355937;28;20065;-73
2022/08/16 23:27:17;;;;;;;3.17;2.88;;;;;;;23.87;46.98;99530.19;10320710;28;20048;-72
2022/08/16 23:32:19;;;;;;;3.85;3.00;;;;;;;23.80;47.31;99531.09;10381859;28;20061;-76
2022/08/16 23:37:20;;;;;;;3.58;3.28;;;;;;;23.76;47.46;99534.50;10369259;28;20853;-73
2022/08/16 23:42:22;;;;;;;3.47;2.97;;;;;;;23.72;47.37;99523.25;10390725;28;20065;-73
2022/08/16 23:47:43;;;;;;;3.47;3.17;;;;;;;23.65;47.82;99517.88;10389828;28;20049;-73
2022/08/16 23:53:05;;;;;;;4.38;2.47;;;;;;;23.57;47.93;99512.78;10369462;28;20049;-73